createdAt,value
2023-04-18T00:01:40.882Z,95877.00
2023-04-18T00:04:10.749Z,95871.81
2023-04-18T00:06:38.964Z,95875.00
2023-04-18T00:09:07.151Z,95870.31
2023-04-18T00:11:35.601Z,95870.13
2023-04-18T00:14:04.457Z,95872.03
2023-04-18T00:16:33.163Z,95873.09
2023-04-18T00:19:02.398Z,95856.81
2023-04-18T00:21:32.033Z,95861.63
2023-04-18T00:24:00.213Z,95870.06
2023-04-18T00:26:28.457Z,95875.59
2023-04-18T00:28:56.509Z,95878.06
2023-04-18T00:31:24.640Z,95868.22
2023-04-18T00:33:52.725Z,95870.13
2023-04-18T00:36:20.817Z,95874.16
2023-04-18T00:38:50.306Z,95873.41
2023-04-18T00:41:18.389Z,95870.56
2023-04-18T00:43:46.474Z,95869.53
2023-04-18T00:46:14.686Z,95875.34
2023-04-18T00:48:42.794Z,95872.22
2023-04-18T00:51:11.152Z,95867.75
2023-04-18T00:53:39.469Z,95870.09
2023-04-18T00:56:09.050Z,95866.97
2023-04-18T00:58:37.202Z,95872.00
2023-04-18T01:01:05.846Z,95869.63
2023-04-18T01:03:34.965Z,95872.25
2023-04-18T01:06:03.242Z,95868.84
2023-04-18T01:08:31.478Z,95868.84
2023-04-18T01:10:59.497Z,95863.38
2023-04-18T01:13:28.882Z,95872.38
2023-04-18T01:15:57.042Z,95871.41
2023-04-18T01:18:25.532Z,95868.31
2023-04-18T01:20:57.097Z,95858.63
2023-04-18T01:23:25.274Z,95870.41
2023-04-18T01:25:54.765Z,95858.91
2023-04-18T01:28:22.992Z,95869.09
2023-04-18T01:30:51.168Z,95872.56
2023-04-18T01:33:19.143Z,95867.59
2023-04-18T01:35:47.137Z,95866.28
2023-04-18T01:38:15.232Z,95860.00
2023-04-18T01:40:43.342Z,95852.72
2023-04-18T01:43:12.843Z,95858.19
2023-04-18T01:45:40.967Z,95861.09
2023-04-18T01:48:09.163Z,95856.91
2023-04-18T01:50:37.242Z,95859.03
2023-04-18T01:53:05.323Z,95859.56
2023-04-18T01:55:33.547Z,95855.09
2023-04-18T01:58:01.671Z,95857.47
2023-04-18T02:00:31.082Z,95868.22
2023-04-18T02:03:00.414Z,95861.16
2023-04-18T02:05:28.606Z,95863.56
2023-04-18T02:07:56.608Z,95864.88
2023-04-18T02:10:25.808Z,95862.28
2023-04-18T02:12:54.100Z,95861.28
2023-04-18T02:15:22.624Z,95865.50
2023-04-18T02:17:52.180Z,95876.00
2023-04-18T02:20:20.360Z,95863.44
2023-04-18T02:22:48.642Z,95872.63
2023-04-18T02:25:16.681Z,95867.66
2023-04-18T02:27:44.696Z,95879.19
2023-04-18T02:30:13.100Z,95883.66
2023-04-18T02:32:41.203Z,95877.91
2023-04-18T02:35:12.640Z,95875.56
2023-04-18T02:37:40.647Z,95881.63
2023-04-18T02:40:10.260Z,95880.88
2023-04-18T02:42:38.261Z,95881.41
2023-04-18T02:45:07.608Z,95886.13
2023-04-18T02:47:43.881Z,95884.06
2023-04-18T02:50:21.112Z,95896.63
2023-04-18T02:52:49.106Z,95890.88
2023-04-18T02:55:17.572Z,95883.56
2023-04-18T02:57:45.929Z,95887.22
2023-04-18T03:00:15.259Z,95890.13
2023-04-18T03:02:43.528Z,95895.09
2023-04-18T03:05:11.743Z,95895.09
2023-04-18T03:07:41.232Z,95896.66
2023-04-18T03:10:09.953Z,95900.34
2023-04-18T03:12:38.058Z,95900.88
2023-04-18T03:15:07.208Z,95898.03
2023-04-18T03:17:35.434Z,95901.97
2023-04-18T03:20:03.523Z,95903.53
2023-04-18T03:22:31.522Z,95901.97
2023-04-18T03:25:01.306Z,95903.81
2023-04-18T03:27:29.354Z,95909.31
2023-04-18T03:29:57.408Z,95908.00
2023-04-18T03:32:25.982Z,95909.06
2023-04-18T03:34:54.198Z,95917.19
2023-04-18T03:37:22.277Z,95909.34
2023-04-18T03:39:50.438Z,95916.16
2023-04-18T03:42:19.859Z,95919.31
2023-04-18T03:44:47.956Z,95911.97
2023-04-18T03:47:16.996Z,95918.25
2023-04-18T03:49:45.012Z,95918.78
2023-04-18T03:52:13.227Z,95919.84
2023-04-18T03:54:41.319Z,95914.59
2023-04-18T03:57:09.497Z,95920.88
2023-04-18T03:59:38.968Z,95919.06
2023-04-18T04:02:07.085Z,95929.28
2023-04-18T04:04:35.159Z,95925.38
2023-04-18T04:07:03.370Z,95922.78
2023-04-18T04:09:31.471Z,95930.88
2023-04-18T04:11:59.559Z,95930.38
2023-04-18T04:14:27.599Z,95931.91
2023-04-18T04:16:57.185Z,95927.44
2023-04-18T04:19:25.378Z,95934.75
2023-04-18T04:21:53.558Z,95936.06
2023-04-18T04:24:22.787Z,95938.66
2023-04-18T04:26:51.558Z,95931.63
2023-04-18T04:29:21.636Z,95938.16
2023-04-18T04:31:49.690Z,95936.31
2023-04-18T04:34:19.201Z,95941.81
2023-04-18T04:36:48.224Z,95950.69
2023-04-18T04:39:17.521Z,95948.34
2023-04-18T04:41:47.276Z,95946.50
2023-04-18T04:44:18.034Z,95947.03
2023-04-18T04:46:46.149Z,95949.91
2023-04-18T04:49:14.197Z,95950.44
2023-04-18T04:51:44.418Z,95953.84
2023-04-18T04:54:12.782Z,95944.97
2023-04-18T04:56:41.080Z,95952.81
2023-04-18T04:59:09.089Z,95954.91
2023-04-18T05:01:37.125Z,95964.03
2023-04-18T05:04:05.623Z,95952.81
2023-04-18T05:06:34.014Z,95955.41
2023-04-18T05:09:03.536Z,95958.03
2023-04-18T05:11:31.649Z,95965.09
2023-04-18T05:13:59.790Z,95963.25
2023-04-18T05:16:28.143Z,95967.97
2023-04-18T05:18:56.200Z,95970.03
2023-04-18T05:21:26.114Z,95965.34
2023-04-18T05:23:54.190Z,95962.47
2023-04-18T05:26:24.533Z,95961.94
2023-04-18T05:28:52.790Z,95965.34
2023-04-18T05:31:21.103Z,95975.78
2023-04-18T05:33:49.201Z,95971.34
2023-04-18T05:36:17.317Z,95964.56
2023-04-18T05:38:45.453Z,95974.75
2023-04-18T05:41:13.725Z,95976.31
2023-04-18T05:43:46.345Z,95969.50
2023-04-18T05:46:22.662Z,95985.16
2023-04-18T05:48:50.680Z,95984.63
2023-04-18T05:51:18.807Z,95985.69
2023-04-18T05:53:46.864Z,95989.34
2023-04-18T05:56:15.118Z,95988.81
2023-04-18T05:58:45.659Z,95994.56
2023-04-18T06:01:15.008Z,95994.03
2023-04-18T06:03:43.236Z,95989.31
2023-04-18T06:06:11.765Z,95991.91
2023-04-18T06:08:40.372Z,95994.53
2023-04-18T06:11:09.089Z,95994.28
2023-04-18T06:13:37.659Z,95996.66
2023-04-18T06:16:07.792Z,95996.63
2023-04-18T06:18:35.926Z,95997.44
2023-04-18T06:21:04.075Z,95997.69
2023-04-18T06:23:32.693Z,95995.34
2023-04-18T06:26:01.477Z,95993.28
2023-04-18T06:28:29.567Z,95992.25
2023-04-18T06:30:57.752Z,95997.22
2023-04-18T06:33:27.196Z,95991.47
2023-04-18T06:35:55.274Z,95999.56
2023-04-18T06:38:23.572Z,95993.28
2023-04-18T06:40:51.778Z,95997.72
2023-04-18T06:43:22.293Z,95989.63
2023-04-18T06:45:50.390Z,95994.34
2023-04-18T06:48:18.447Z,95985.72
2023-04-18T06:50:47.881Z,95982.06
2023-04-18T06:53:16.121Z,95999.88
2023-04-18T06:55:44.650Z,95989.44
2023-04-18T06:58:13.908Z,95989.47
2023-04-18T07:00:42.169Z,95987.88
2023-04-18T07:03:13.703Z,95985.25
2023-04-18T07:05:42.213Z,95982.63
2023-04-18T07:08:11.596Z,95980.63
2023-04-18T07:10:39.651Z,95980.75
2023-04-18T07:13:07.797Z,95983.06
2023-04-18T07:15:36.173Z,95974.69
2023-04-18T07:18:04.440Z,95976.38
2023-04-18T07:20:32.671Z,95967.25
2023-04-18T07:23:00.804Z,95967.06
2023-04-18T07:25:30.394Z,95963.22
2023-04-18T07:27:58.703Z,95972.16
2023-04-18T07:30:26.827Z,95957.56
2023-04-18T07:32:55.046Z,95952.03
2023-04-18T07:35:23.206Z,95953.28
2023-04-18T07:37:51.394Z,95949.34
2023-04-18T07:40:19.584Z,95949.94
2023-04-18T07:42:49.202Z,95944.94
2023-04-18T07:45:17.833Z,95932.94
2023-04-18T07:47:46.171Z,95940.88
2023-04-18T07:50:14.282Z,95937.63
2023-04-18T07:52:42.500Z,95938.91
2023-04-18T07:55:11.162Z,95935.47
2023-04-18T07:57:39.318Z,95928.09
2023-04-18T08:00:10.544Z,95920.38
2023-04-18T08:02:38.844Z,95923.41
2023-04-18T08:05:08.164Z,95914.81
2023-04-18T08:07:36.395Z,95922.44
2023-04-18T08:10:05.089Z,95917.78
2023-04-18T08:12:33.287Z,95925.13
2023-04-18T08:15:01.528Z,95927.16
2023-04-18T08:17:31.252Z,95924.09
2023-04-18T08:19:59.377Z,95919.47
2023-04-18T08:22:27.565Z,95917.69
2023-04-18T08:25:04.478Z,95919.13
2023-04-18T08:27:33.862Z,95912.75
2023-04-18T08:30:04.143Z,95910.41
2023-04-18T08:32:34.181Z,95908.25
2023-04-18T08:35:02.373Z,95904.91
2023-04-18T08:37:31.229Z,95907.47
2023-04-18T08:39:59.351Z,95903.84
2023-04-18T08:42:28.449Z,95904.19
2023-04-18T08:44:57.912Z,95901.47
2023-04-18T08:47:26.057Z,95903.59
2023-04-18T08:49:57.410Z,95895.72
2023-04-18T08:52:27.283Z,95900.06
2023-04-18T08:54:57.201Z,95896.66
2023-04-18T08:57:27.277Z,95896.94
2023-04-18T08:59:55.894Z,95900.91
2023-04-18T09:02:38.867Z,95895.53
2023-04-18T09:05:14.534Z,95885.50
2023-04-18T09:07:44.051Z,95881.03
2023-04-18T09:10:12.859Z,95888.53
2023-04-18T09:12:49.962Z,95880.53
2023-04-18T09:15:20.273Z,95876.72
2023-04-18T09:17:51.354Z,95878.97
2023-04-18T09:20:34.810Z,95870.22
2023-04-18T09:23:05.419Z,95872.22
2023-04-18T09:25:36.116Z,95871.13
2023-04-18T09:28:05.456Z,95871.84
2023-04-18T09:30:37.061Z,95864.59
2023-04-18T09:33:07.698Z,95870.56
2023-04-18T09:35:38.086Z,95862.38
2023-04-18T09:38:07.360Z,95859.84
2023-04-18T09:40:35.538Z,95848.59
2023-04-18T09:43:19.373Z,95841.06
2023-04-18T09:45:48.841Z,95837.84
2023-04-18T09:48:16.980Z,95838.66
2023-04-18T09:50:48.907Z,95828.22
2023-04-18T09:53:20.946Z,95829.00
2023-04-18T09:55:53.033Z,95832.88
2023-04-18T09:58:23.823Z,95824.53
2023-04-18T10:00:54.420Z,95828.94
2023-04-18T10:03:26.212Z,95819.19
2023-04-18T10:05:57.801Z,95815.06
2023-04-18T10:08:27.541Z,95806.81
2023-04-18T10:10:58.744Z,95817.19
2023-04-18T10:13:29.359Z,95803.94
2023-04-18T10:15:58.034Z,95797.97
2023-04-18T10:18:26.307Z,95790.16
2023-04-18T10:21:02.747Z,95791.16
2023-04-18T10:23:38.698Z,95787.94
2023-04-18T10:26:07.910Z,95781.59
2023-04-18T10:28:53.349Z,95776.53
2023-04-18T10:31:23.467Z,95777.88
2023-04-18T10:34:03.918Z,95781.78
2023-04-18T10:36:35.090Z,95772.13
2023-04-18T10:39:20.978Z,95769.56
2023-04-18T10:41:51.265Z,95763.34
2023-04-18T10:44:22.936Z,95762.09
2023-04-18T10:47:24.485Z,95754.28
2023-04-18T10:49:58.240Z,95758.72
2023-04-18T10:52:28.738Z,95746.13
2023-04-18T10:55:04.350Z,95751.53
2023-04-18T10:57:40.155Z,95745.50
2023-04-18T11:00:12.072Z,95748.31
2023-04-18T11:02:40.551Z,95742.78
2023-04-18T11:05:10.206Z,95741.22
2023-04-18T11:07:40.902Z,95728.44
2023-04-18T11:10:10.730Z,95731.44
2023-04-18T11:12:40.151Z,95735.03
2023-04-18T11:15:12.762Z,95741.84
2023-04-18T11:17:42.047Z,95742.97
2023-04-18T11:20:12.925Z,95737.19
2023-04-18T11:22:49.951Z,95738.69
2023-04-18T11:25:19.155Z,95740.09
2023-04-18T11:27:49.140Z,95735.22
2023-04-18T11:30:17.371Z,95728.53
2023-04-18T11:32:45.648Z,95734.19
2023-04-18T11:35:15.199Z,95728.19
2023-04-18T11:37:45.559Z,95725.28
2023-04-18T11:40:15.704Z,95727.59
2023-04-18T11:42:43.967Z,95722.28
2023-04-18T11:45:13.637Z,95716.88
2023-04-18T11:47:43.308Z,95716.75
2023-04-18T11:50:13.473Z,95719.56
2023-04-18T11:52:43.631Z,95715.56
2023-04-18T11:55:19.203Z,95714.69
2023-04-18T11:57:57.696Z,95718.81
2023-04-18T12:00:34.702Z,95710.72
2023-04-18T12:03:04.559Z,95717.22
2023-04-18T12:05:36.022Z,95702.28
2023-04-18T12:08:08.501Z,95717.31
2023-04-18T12:10:38.302Z,95702.41
2023-04-18T12:13:09.297Z,95706.09
2023-04-18T12:15:40.569Z,95704.41
2023-04-18T12:18:09.646Z,95701.66
2023-04-18T12:20:39.504Z,95701.38
2023-04-18T12:23:08.148Z,95700.59
2023-04-18T12:25:38.575Z,95697.31
2023-04-18T12:28:16.835Z,95696.75
2023-04-18T12:30:45.068Z,95700.94
2023-04-18T12:33:13.571Z,95697.13
2023-04-18T12:35:42.625Z,95701.63
2023-04-18T12:38:11.113Z,95703.00
2023-04-18T12:40:41.844Z,95700.69
2023-04-18T12:43:11.367Z,95694.56
2023-04-18T12:45:39.666Z,95696.28
2023-04-18T12:48:08.121Z,95696.41
2023-04-18T12:50:36.406Z,95695.16
2023-04-18T12:53:05.079Z,95690.41
2023-04-18T12:55:33.342Z,95689.75
2023-04-18T12:58:03.038Z,95693.91
2023-04-18T13:00:33.208Z,95688.81
2023-04-18T13:03:01.688Z,95698.72
2023-04-18T13:05:33.444Z,95698.22
2023-04-18T13:08:15.365Z,95688.47
2023-04-18T13:10:44.771Z,95698.72
2023-04-18T13:13:14.795Z,95696.22
2023-04-18T13:15:43.066Z,95691.88
2023-04-18T13:18:11.208Z,95688.44
2023-04-18T13:20:39.367Z,95682.22
2023-04-18T13:23:07.467Z,95698.66
2023-04-18T13:25:35.739Z,95708.09
2023-04-18T13:28:04.051Z,95695.63
2023-04-18T13:30:35.748Z,95702.38
2023-04-18T13:33:04.207Z,95698.00
2023-04-18T13:35:32.531Z,95708.97
2023-04-18T13:38:00.744Z,95704.19
2023-04-18T13:40:28.899Z,95702.06
2023-04-18T13:42:57.055Z,95703.03
2023-04-18T13:45:25.210Z,95692.53
2023-04-18T13:47:54.874Z,95699.78
2023-04-18T13:50:23.299Z,95699.78
2023-04-18T13:52:52.135Z,95702.97
2023-04-18T13:55:20.300Z,95694.34
2023-04-18T13:57:48.402Z,95698.69
2023-04-18T14:00:17.630Z,95698.84
2023-04-18T14:02:45.940Z,95681.28
2023-04-18T14:05:15.632Z,95693.38
2023-04-18T14:07:43.771Z,95691.75
2023-04-18T14:10:12.629Z,95683.03
2023-04-18T14:12:41.259Z,95691.44
2023-04-18T14:15:10.914Z,95687.94
2023-04-18T14:17:39.105Z,95682.06
2023-04-18T14:20:08.717Z,95690.22
2023-04-18T14:22:38.343Z,95696.94
2023-04-18T14:25:08.564Z,95692.78
2023-04-18T14:27:37.540Z,95681.38
2023-04-18T14:30:08.780Z,95686.31
2023-04-18T14:32:37.084Z,95686.81
2023-04-18T14:35:07.260Z,95694.59
2023-04-18T14:37:35.550Z,95695.94
2023-04-18T14:40:07.018Z,95701.94
2023-04-18T14:42:35.241Z,95697.91
2023-04-18T14:45:05.285Z,95698.00
2023-04-18T14:47:34.803Z,95685.16
2023-04-18T14:50:03.197Z,95686.78
2023-04-18T14:52:31.428Z,95694.00
2023-04-18T14:54:59.627Z,95692.31
2023-04-18T14:57:29.425Z,95696.53
2023-04-18T14:59:57.797Z,95688.34
2023-04-18T15:02:26.194Z,95696.34
2023-04-18T15:04:54.901Z,95700.56
2023-04-18T15:07:23.240Z,95685.94
2023-04-18T15:09:52.219Z,95697.38
2023-04-18T15:12:20.365Z,95696.69
2023-04-18T15:14:49.971Z,95681.13
2023-04-18T15:17:18.033Z,95682.25
2023-04-18T15:19:46.292Z,95698.31
2023-04-18T15:22:14.547Z,95689.03
2023-04-18T15:24:42.727Z,95700.38
2023-04-18T15:27:11.000Z,95700.56
2023-04-18T15:29:39.296Z,95690.84
2023-04-18T15:32:09.947Z,95693.44
2023-04-18T15:34:38.186Z,95700.31
2023-04-18T15:37:06.582Z,95692.16
2023-04-18T15:39:34.781Z,95699.72
2023-04-18T15:42:03.071Z,95701.75
2023-04-18T15:44:31.737Z,95702.44
2023-04-18T15:47:01.245Z,95707.06
2023-04-18T15:49:31.231Z,95700.19
2023-04-18T15:51:59.381Z,95701.06
2023-04-18T15:54:27.570Z,95701.25
2023-04-18T15:56:56.300Z,95704.28
2023-04-18T15:59:24.541Z,95698.16
2023-04-18T16:01:52.952Z,95704.34
2023-04-18T16:04:21.274Z,95702.03
2023-04-18T16:06:50.978Z,95709.91
2023-04-18T16:09:19.224Z,95705.69
2023-04-18T16:11:47.425Z,95705.47
2023-04-18T16:14:15.724Z,95705.91
2023-04-18T16:16:44.071Z,95705.47
2023-04-18T16:19:12.451Z,95710.38
2023-04-18T16:21:40.580Z,95711.03
2023-04-18T16:24:10.472Z,95708.81
2023-04-18T16:26:38.661Z,95708.81
2023-04-18T16:29:07.136Z,95720.56
2023-04-18T16:31:35.327Z,95717.69
2023-04-18T16:34:04.176Z,95726.09
2023-04-18T16:36:34.760Z,95722.31
2023-04-18T16:39:02.882Z,95717.25
2023-04-18T16:41:32.621Z,95717.41
2023-04-18T16:44:00.857Z,95711.91
2023-04-18T16:46:31.487Z,95722.16
2023-04-18T16:49:01.634Z,95727.69
2023-04-18T16:51:30.169Z,95725.03
2023-04-18T16:53:58.392Z,95724.59
2023-04-18T16:56:26.635Z,95728.63
2023-04-18T16:58:56.370Z,95729.56
2023-04-18T17:01:24.580Z,95726.81
2023-04-18T17:03:52.954Z,95731.91
2023-04-18T17:06:23.045Z,95728.97
2023-04-18T17:08:53.596Z,95727.16
2023-04-18T17:11:21.988Z,95739.75
2023-04-18T17:13:51.544Z,95740.19
2023-04-18T17:16:21.219Z,95740.16
2023-04-18T17:18:49.368Z,95742.56
2023-04-18T17:21:17.535Z,95749.19
2023-04-18T17:23:53.492Z,95738.53
2023-04-18T17:26:22.748Z,95752.44
2023-04-18T17:28:50.933Z,95759.22
2023-04-18T17:31:20.497Z,95759.03
2023-04-18T17:33:50.584Z,95762.72
2023-04-18T17:36:18.922Z,95761.19
2023-04-18T17:38:49.029Z,95756.91
2023-04-18T17:41:17.893Z,95761.28
2023-04-18T17:43:46.996Z,95768.34
2023-04-18T17:46:15.769Z,95768.69
2023-04-18T17:48:45.582Z,95764.66
2023-04-18T17:51:13.704Z,95770.16
2023-04-18T17:53:41.876Z,95768.97
2023-04-18T17:56:11.413Z,95781.94
2023-04-18T17:58:39.581Z,95772.03
2023-04-18T18:01:15.511Z,95779.84
2023-04-18T18:03:46.075Z,95782.53
2023-04-18T18:06:15.666Z,95787.84
2023-04-18T18:08:44.834Z,95796.56
2023-04-18T18:11:13.045Z,95796.72
2023-04-18T18:13:41.193Z,95790.50
2023-04-18T18:16:09.696Z,95801.69
2023-04-18T18:18:38.268Z,95804.66
2023-04-18T18:21:07.923Z,95812.91
2023-04-18T18:23:36.035Z,95811.97
2023-04-18T18:26:04.237Z,95817.88
2023-04-18T18:28:32.369Z,95815.38
2023-04-18T18:31:00.793Z,95823.03
2023-04-18T18:33:29.070Z,95825.34
2023-04-18T18:35:58.631Z,95830.63
2023-04-18T18:38:28.280Z,95832.34
2023-04-18T18:40:56.402Z,95836.25
2023-04-18T18:43:26.404Z,95835.97
2023-04-18T18:45:54.648Z,95841.56
2023-04-18T18:48:22.865Z,95844.03
2023-04-18T18:50:51.499Z,95850.41
2023-04-18T18:53:19.672Z,95848.56
2023-04-18T18:55:49.195Z,95848.38
2023-04-18T18:58:17.409Z,95857.41
2023-04-18T19:00:46.947Z,95864.41
2023-04-18T19:03:18.492Z,95859.25
2023-04-18T19:05:47.043Z,95861.09
2023-04-18T19:08:15.630Z,95858.44
2023-04-18T19:10:43.929Z,95859.66
2023-04-18T19:13:13.605Z,95860.44
2023-04-18T19:15:41.788Z,95874.13
2023-04-18T19:18:10.012Z,95871.50
2023-04-18T19:20:40.377Z,95872.56
2023-04-18T19:23:08.647Z,95873.03
2023-04-18T19:25:37.012Z,95885.94
2023-04-18T19:28:05.995Z,95889.16
2023-04-18T19:30:35.753Z,95890.19
2023-04-18T19:33:04.300Z,95892.47
2023-04-18T19:35:32.557Z,95901.59
2023-04-18T19:38:02.320Z,95899.09
2023-04-18T19:40:30.697Z,95893.19
2023-04-18T19:42:59.202Z,95899.84
2023-04-18T19:45:27.560Z,95895.06
2023-04-18T19:47:57.317Z,95903.28
2023-04-18T19:50:25.657Z,95910.91
2023-04-18T19:52:53.868Z,95914.00
2023-04-18T19:55:22.455Z,95912.16
2023-04-18T19:57:55.638Z,95918.34
2023-04-18T20:00:24.148Z,95920.97
2023-04-18T20:02:52.964Z,95927.16
2023-04-18T20:05:23.267Z,95930.09
2023-04-18T20:07:51.487Z,95924.06
2023-04-18T20:10:22.569Z,95928.56
2023-04-18T20:12:50.878Z,95928.84
2023-04-18T20:15:19.209Z,95933.16
2023-04-18T20:17:47.618Z,95943.06
2023-04-18T20:20:15.877Z,95948.47
2023-04-18T20:22:47.506Z,95946.44
2023-04-18T20:25:15.798Z,95952.50
2023-04-18T20:27:43.932Z,95954.66
2023-04-18T20:30:12.663Z,95951.84
2023-04-18T20:32:41.124Z,95959.88
2023-04-18T20:35:10.007Z,95968.56
2023-04-18T20:37:39.114Z,95969.34
2023-04-18T20:40:10.014Z,95971.03
2023-04-18T20:42:38.983Z,95970.53
2023-04-18T20:45:11.292Z,95974.84
2023-04-18T20:47:41.308Z,95979.16
2023-04-18T20:50:10.742Z,95977.59
2023-04-18T20:52:38.957Z,95980.84
2023-04-18T20:55:09.383Z,95981.13
2023-04-18T20:57:38.878Z,95986.81
2023-04-18T21:00:10.693Z,95991.41
2023-04-18T21:02:39.294Z,95998.94
2023-04-18T21:05:08.195Z,95994.09
2023-04-18T21:07:36.898Z,95991.72
2023-04-18T21:10:05.481Z,95995.44
2023-04-18T21:12:35.175Z,95997.78
2023-04-18T21:15:05.553Z,96000.41
2023-04-18T21:17:33.775Z,95993.19
2023-04-18T21:20:01.967Z,96002.19
2023-04-18T21:22:30.168Z,96009.59
2023-04-18T21:24:58.360Z,96011.28
2023-04-18T21:27:26.573Z,96017.72
2023-04-18T21:29:56.178Z,96017.72
2023-04-18T21:32:24.286Z,96027.47
2023-04-18T21:34:52.657Z,96030.41
2023-04-18T21:37:20.863Z,96036.84
2023-04-18T21:39:49.014Z,96036.44
2023-04-18T21:42:17.167Z,96045.63
2023-04-18T21:44:45.291Z,96043.25
2023-04-18T21:47:15.011Z,96052.97
2023-04-18T21:49:43.316Z,96055.88
2023-04-18T21:52:11.604Z,96064.41
2023-04-18T21:54:40.412Z,96052.69
2023-04-18T21:57:08.673Z,96064.00
2023-04-18T21:59:36.888Z,96060.88
2023-04-18T22:02:05.235Z,96062.00
2023-04-18T22:04:35.210Z,96060.41
2023-04-18T22:07:03.437Z,96064.13
2023-04-18T22:09:33.959Z,96068.88
2023-04-18T22:12:03.509Z,96075.50
2023-04-18T22:14:32.687Z,96064.06
2023-04-18T22:17:03.271Z,96069.59
2023-04-18T22:19:31.580Z,96078.28
2023-04-18T22:22:01.694Z,96074.88
2023-04-18T22:24:30.792Z,96082.19
2023-04-18T22:26:58.931Z,96088.03
2023-04-18T22:29:27.133Z,96082.34
2023-04-18T22:31:55.377Z,96089.78
2023-04-18T22:34:23.625Z,96099.59
2023-04-18T22:36:51.735Z,96089.91
2023-04-18T22:39:21.182Z,96085.78
2023-04-18T22:41:49.365Z,96091.56
2023-04-18T22:44:17.874Z,96093.69
2023-04-18T22:46:48.212Z,96095.25
2023-04-18T22:49:18.334Z,96098.38
2023-04-18T22:51:47.453Z,96102.28
2023-04-18T22:54:16.062Z,96099.44
2023-04-18T22:56:45.939Z,96113.16
2023-04-18T22:59:14.388Z,96111.19
2023-04-18T23:01:42.600Z,96104.47
2023-04-18T23:04:11.112Z,96118.69
2023-04-18T23:06:39.540Z,96115.03
2023-04-18T23:09:09.276Z,96113.53
2023-04-18T23:11:37.379Z,96111.97
2023-04-18T23:14:08.716Z,96116.72
2023-04-18T23:16:36.896Z,96118.63
2023-04-18T23:19:05.457Z,96116.22
2023-04-18T23:21:33.685Z,96117.56
2023-04-18T23:24:01.934Z,96122.59
2023-04-18T23:26:30.081Z,96121.84
2023-04-18T23:28:58.184Z,96130.34
2023-04-18T23:31:27.942Z,96126.75
2023-04-18T23:33:57.085Z,96126.53
2023-04-18T23:36:25.927Z,96123.44
2023-04-18T23:38:54.110Z,96128.91
2023-04-18T23:41:22.258Z,96123.94
2023-04-18T23:43:50.370Z,96126.56
2023-04-18T23:46:19.022Z,96132.88
2023-04-18T23:48:48.723Z,96132.34
2023-04-18T23:51:16.849Z,96133.38
2023-04-18T23:53:45.125Z,96125.50
2023-04-18T23:56:13.443Z,96130.75
2023-04-18T23:58:41.664Z,96130.25
